createdAt,value
2022-09-20T00:04:56.632Z,7.99
2022-09-20T00:10:07.648Z,8.07
2022-09-20T00:15:20.871Z,8.14
2022-09-20T00:20:37.218Z,8.14
2022-09-20T00:25:58.359Z,8.15
2022-09-20T00:31:17.690Z,8.18
2022-09-20T00:36:45.306Z,8.25
2022-09-20T00:41:58.207Z,8.38
2022-09-20T00:47:25.143Z,8.49
2022-09-20T00:52:40.983Z,8.56
2022-09-20T00:57:50.139Z,8.60
2022-09-20T01:03:09.179Z,8.64
2022-09-20T01:08:16.791Z,8.71
2022-09-20T01:13:28.833Z,8.77
2022-09-20T01:18:46.155Z,8.81
2022-09-20T01:24:09.284Z,8.76
2022-09-20T01:29:31.130Z,8.64
2022-09-20T01:34:55.555Z,8.53
2022-09-20T01:40:12.487Z,8.46
2022-09-20T01:45:31.907Z,8.42
2022-09-20T01:51:24.799Z,8.36
2022-09-20T01:56:55.061Z,8.23
2022-09-20T02:02:40.357Z,8.10
2022-09-20T02:08:19.341Z,8.04
2022-09-20T02:13:54.241Z,7.98
2022-09-20T02:19:43.100Z,7.87
2022-09-20T02:25:32.963Z,7.75
2022-09-20T02:30:52.534Z,7.63
2022-09-20T02:36:18.396Z,7.56
2022-09-20T02:42:04.542Z,7.56
2022-09-20T02:47:23.051Z,7.55
2022-09-20T02:52:40.127Z,7.46
2022-09-20T02:58:21.470Z,7.32
2022-09-20T03:03:43.562Z,7.24
2022-09-20T03:08:59.954Z,7.22
2022-09-20T03:14:18.072Z,7.20
2022-09-20T03:20:02.137Z,7.14
2022-09-20T03:25:36.074Z,7.07
2022-09-20T03:31:02.044Z,7.02
2022-09-20T03:36:40.304Z,6.97
2022-09-20T03:41:58.704Z,6.88
2022-09-20T03:47:18.880Z,6.83
2022-09-20T03:52:49.439Z,6.73
2022-09-20T03:58:19.495Z,6.69
2022-09-20T04:03:46.261Z,6.64
2022-09-20T04:09:26.282Z,6.61
2022-09-20T04:14:41.943Z,6.56
2022-09-20T04:19:56.060Z,6.47
2022-09-20T04:25:15.115Z,6.43
2022-09-20T04:30:29.745Z,6.42
2022-09-20T04:36:02.459Z,6.47
2022-09-20T04:41:34.220Z,6.53
2022-09-20T04:47:25.632Z,6.57
2022-09-20T04:58:36.460Z,6.67
2022-09-20T05:04:30.209Z,6.71
2022-09-20T05:10:22.013Z,6.83
2022-09-20T05:15:45.748Z,6.92
2022-09-20T05:21:30.883Z,6.95
2022-09-20T05:27:04.638Z,6.96
2022-09-20T05:32:29.471Z,7.08
2022-09-20T05:37:47.890Z,7.29
2022-09-20T05:43:21.102Z,7.62
2022-09-20T05:48:45.812Z,8.11
2022-09-20T05:54:18.998Z,8.84
2022-09-20T05:59:56.817Z,9.47
2022-09-20T06:05:17.343Z,9.79
2022-09-20T06:10:53.288Z,10.19
2022-09-20T06:16:19.059Z,10.74
2022-09-20T06:21:42.868Z,11.37
2022-09-20T06:26:57.925Z,11.76
2022-09-20T06:32:08.663Z,12.02
2022-09-20T06:37:47.417Z,12.36
2022-09-20T06:43:04.905Z,12.80
2022-09-20T06:48:20.866Z,13.17
2022-09-20T06:53:36.393Z,13.57
2022-09-20T06:59:03.809Z,14.03
2022-09-20T07:04:22.388Z,14.49
2022-09-20T07:09:39.810Z,15.03
2022-09-20T07:15:34.309Z,15.59
2022-09-20T07:20:55.933Z,16.09
2022-09-20T07:26:21.721Z,16.55
2022-09-20T07:31:39.954Z,16.84
2022-09-20T07:37:07.556Z,16.77
2022-09-20T07:42:26.447Z,16.75
2022-09-20T07:47:35.653Z,16.77
2022-09-20T07:52:49.306Z,16.88
2022-09-20T07:58:18.443Z,17.38
2022-09-20T08:03:50.392Z,18.32
2022-09-20T08:08:56.741Z,19.46
2022-09-20T08:14:24.916Z,20.53
2022-09-20T08:19:35.189Z,21.51
2022-09-20T08:24:45.541Z,22.38
2022-09-20T08:29:54.955Z,23.36
2022-09-20T08:35:22.723Z,24.24
2022-09-20T08:40:33.097Z,24.87
2022-09-20T08:45:42.374Z,25.18
2022-09-20T08:50:52.924Z,25.04
2022-09-20T08:56:00.781Z,24.97
2022-09-20T09:01:32.727Z,23.86
2022-09-20T09:06:44.155Z,22.91
2022-09-20T09:11:56.030Z,22.62
2022-09-20T09:17:04.263Z,21.73
2022-09-20T09:22:37.035Z,20.91
2022-09-20T09:28:31.873Z,20.55
2022-09-20T09:33:47.191Z,19.82
2022-09-20T09:39:23.695Z,18.82
2022-09-20T09:44:50.463Z,17.75
2022-09-20T09:50:06.117Z,17.01
2022-09-20T09:55:53.065Z,16.58
2022-09-20T10:01:05.901Z,16.41
2022-09-20T10:06:34.160Z,16.20
2022-09-20T10:11:58.783Z,16.03
2022-09-20T10:17:21.038Z,16.06
2022-09-20T10:23:34.517Z,16.25
2022-09-20T10:29:26.409Z,16.53
2022-09-20T10:35:06.337Z,16.69
2022-09-20T10:40:49.146Z,16.81
2022-09-20T10:46:30.666Z,16.99
2022-09-20T10:52:19.022Z,17.10
2022-09-20T10:58:09.891Z,17.01
2022-09-20T11:03:33.288Z,17.00
2022-09-20T11:08:42.088Z,17.07
2022-09-20T11:13:59.596Z,17.20
2022-09-20T11:19:26.954Z,17.32
2022-09-20T11:25:03.013Z,17.51
2022-09-20T11:30:19.144Z,17.62
2022-09-20T11:35:34.395Z,17.68
2022-09-20T11:40:55.686Z,17.71
2022-09-20T11:46:08.031Z,17.73
2022-09-20T11:51:49.718Z,17.69
2022-09-20T11:56:59.836Z,17.71
2022-09-20T12:02:17.194Z,17.75
2022-09-20T12:07:28.400Z,17.83
2022-09-20T12:12:41.720Z,17.84
2022-09-20T12:18:15.827Z,17.67
2022-09-20T12:24:04.079Z,17.39
2022-09-20T12:29:52.656Z,17.28
2022-09-20T12:35:03.592Z,17.13
2022-09-20T12:40:20.230Z,16.90
2022-09-20T12:45:33.159Z,16.79
2022-09-20T12:50:56.511Z,16.72
2022-09-20T12:56:28.270Z,16.67
2022-09-20T13:01:47.098Z,16.67
2022-09-20T13:07:34.604Z,16.68
2022-09-20T13:12:43.677Z,16.75
2022-09-20T13:18:04.661Z,16.76
2022-09-20T13:23:27.007Z,16.84
2022-09-20T13:28:41.717Z,16.85
2022-09-20T13:33:53.894Z,16.79
2022-09-20T13:39:01.227Z,16.72
2022-09-20T13:44:28.952Z,16.64
2022-09-20T13:49:45.999Z,16.51
2022-09-20T13:55:28.728Z,16.36
2022-09-20T14:00:38.454Z,16.26
2022-09-20T14:05:53.062Z,16.25
2022-09-20T14:11:18.016Z,16.33
2022-09-20T14:16:40.799Z,16.31
2022-09-20T14:21:49.277Z,16.20
2022-09-20T14:27:21.587Z,16.03
2022-09-20T14:47:26.165Z,15.91
2022-09-20T14:53:22.867Z,15.88
2022-09-20T14:59:30.819Z,15.77
2022-09-20T15:05:04.929Z,15.69
2022-09-20T15:10:32.580Z,15.64
2022-09-20T15:22:59.694Z,15.58
2022-09-20T15:29:14.577Z,15.50
2022-09-20T15:34:43.709Z,15.34
2022-09-20T15:40:07.005Z,15.22
2022-09-20T15:45:24.270Z,15.22
2022-09-20T15:50:32.792Z,15.20
2022-09-20T15:55:41.417Z,15.13
2022-09-20T16:00:50.124Z,15.00
2022-09-20T16:06:04.629Z,14.83
2022-09-20T16:11:17.247Z,14.63
2022-09-20T16:16:29.339Z,14.47
2022-09-20T16:21:39.889Z,14.34
2022-09-20T16:26:48.399Z,14.21
2022-09-20T16:31:58.416Z,14.09
2022-09-20T16:37:08.366Z,13.97
2022-09-20T16:42:26.182Z,13.84
2022-09-20T16:47:34.233Z,13.71
2022-09-20T16:52:40.590Z,13.59
2022-09-20T16:57:52.191Z,13.44
2022-09-20T17:03:00.285Z,13.29
2022-09-20T17:08:28.707Z,13.16
2022-09-20T17:13:47.401Z,13.07
2022-09-20T17:19:06.726Z,12.95
2022-09-20T17:24:20.095Z,12.80
2022-09-20T17:29:48.398Z,12.64
2022-09-20T17:34:55.744Z,12.51
2022-09-20T17:40:03.338Z,12.38
2022-09-20T17:45:22.524Z,12.24
2022-09-20T17:50:57.847Z,12.17
2022-09-20T17:56:06.730Z,12.13
2022-09-20T18:01:39.649Z,12.10
2022-09-20T18:07:08.433Z,12.04
2022-09-20T18:12:21.682Z,11.97
2022-09-20T18:17:54.659Z,11.84
2022-09-20T18:23:08.422Z,11.72
2022-09-20T18:28:48.853Z,11.64
2022-09-20T18:34:12.924Z,11.63
2022-09-20T18:39:42.038Z,11.65
2022-09-20T18:45:20.802Z,11.62
2022-09-20T18:50:35.620Z,11.53
2022-09-20T18:55:55.525Z,11.37
2022-09-20T19:01:27.172Z,11.21
2022-09-20T19:06:50.599Z,11.08
2022-09-20T19:12:17.066Z,10.99
2022-09-20T19:17:42.998Z,10.90
2022-09-20T19:23:31.166Z,10.80
2022-09-20T19:28:57.539Z,10.68
2022-09-20T19:34:30.447Z,10.63
2022-09-20T19:39:58.461Z,10.61
2022-09-20T19:45:29.378Z,10.61
2022-09-20T19:50:45.558Z,10.61
2022-09-20T19:55:57.493Z,10.59
2022-09-20T20:01:11.766Z,10.54
2022-09-20T20:06:26.996Z,10.53
2022-09-20T20:11:44.325Z,10.55
2022-09-20T20:17:05.612Z,10.55
2022-09-20T20:22:30.774Z,10.51
2022-09-20T20:27:42.933Z,10.45
2022-09-20T20:33:04.756Z,10.39
2022-09-20T20:38:37.221Z,10.36
2022-09-20T20:43:57.484Z,10.37
2022-09-20T20:49:05.942Z,10.40
2022-09-20T20:54:29.788Z,10.45
2022-09-20T20:59:56.681Z,10.45
2022-09-20T21:05:08.381Z,10.41
2022-09-20T21:10:28.911Z,10.36
2022-09-20T21:15:49.169Z,10.36
2022-09-20T21:21:17.723Z,10.33
2022-09-20T21:26:32.455Z,10.32
2022-09-20T21:32:00.618Z,10.28
2022-09-20T21:37:11.160Z,10.29
2022-09-20T21:42:29.155Z,10.32
2022-09-20T21:47:57.313Z,10.36
2022-09-20T21:53:17.372Z,10.36
2022-09-20T21:59:13.052Z,10.36
2022-09-20T22:04:34.657Z,10.36
2022-09-20T22:10:01.979Z,10.39
2022-09-20T22:15:30.950Z,10.40
2022-09-20T22:20:49.757Z,10.39
2022-09-20T22:26:10.769Z,10.41
2022-09-20T22:31:45.802Z,10.46
2022-09-20T22:37:14.302Z,10.51
2022-09-20T22:42:27.372Z,10.53
2022-09-20T22:47:57.132Z,10.56
2022-09-20T22:53:08.785Z,10.60
2022-09-20T22:58:48.467Z,10.64
2022-09-20T23:04:19.206Z,10.66
2022-09-20T23:09:40.480Z,10.68
2022-09-20T23:15:21.280Z,10.73
2022-09-20T23:20:50.171Z,10.76
2022-09-20T23:26:08.939Z,10.78
2022-09-20T23:31:28.234Z,10.80
2022-09-20T23:36:56.269Z,10.84
2022-09-20T23:42:15.174Z,10.86
2022-09-20T23:47:22.765Z,10.85
2022-09-20T23:52:30.490Z,10.83
2022-09-20T23:57:51.145Z,10.83
